sensor_id;sensor_type;location;lat;lon;timestamp;P1;durP1;ratioP1;P2;durP2;ratioP2
30515;SDS011;17297;54.022;10.760;2023-03-04T00:02:16;4.18;;;1.50;;
30515;SDS011;17297;54.022;10.760;2023-03-04T00:04:42;3.55;;;1.73;;
30515;SDS011;17297;54.022;10.760;2023-03-04T00:07:07;5.97;;;1.48;;
30515;SDS011;17297;54.022;10.760;2023-03-04T00:09:33;3.75;;;1.73;;
30515;SDS011;17297;54.022;10.760;2023-03-04T00:11:58;9.77;;;1.95;;
30515;SDS011;17297;54.022;10.760;2023-03-04T00:14:24;2.47;;;1.50;;
30515;SDS011;17297;54.022;10.760;2023-03-04T00:16:49;4.43;;;1.48;;
30515;SDS011;17297;54.022;10.760;2023-03-04T00:19:15;4.18;;;1.77;;
30515;SDS011;17297;54.022;10.760;2023-03-04T00:21:40;2.53;;;1.10;;
30515;SDS011;17297;54.022;10.760;2023-03-04T00:24:06;6.40;;;3.13;;
30515;SDS011;17297;54.022;10.760;2023-03-04T00:26:31;7.18;;;1.40;;
30515;SDS011;17297;54.022;10.760;2023-03-04T00:28:57;11.93;;;1.67;;
30515;SDS011;17297;54.022;10.760;2023-03-04T00:31:22;5.93;;;1.65;;
30515;SDS011;17297;54.022;10.760;2023-03-04T00:33:48;3.58;;;1.17;;
30515;SDS011;17297;54.022;10.760;2023-03-04T00:36:13;2.22;;;1.30;;
30515;SDS011;17297;54.022;10.760;2023-03-04T00:38:39;3.60;;;1.20;;
30515;SDS011;17297;54.022;10.760;2023-03-04T00:41:05;5.20;;;1.50;;
30515;SDS011;17297;54.022;10.760;2023-03-04T00:43:30;4.28;;;2.17;;
30515;SDS011;17297;54.022;10.760;2023-03-04T00:45:56;5.22;;;1.20;;
30515;SDS011;17297;54.022;10.760;2023-03-04T00:48:22;5.18;;;1.25;;
30515;SDS011;17297;54.022;10.760;2023-03-04T00:50:48;7.45;;;1.25;;
30515;SDS011;17297;54.022;10.760;2023-03-04T00:53:15;4.38;;;0.90;;
30515;SDS011;17297;54.022;10.760;2023-03-04T00:55:41;7.07;;;1.38;;
30515;SDS011;17297;54.022;10.760;2023-03-04T00:58:07;2.83;;;1.10;;
30515;SDS011;17297;54.022;10.760;2023-03-04T01:00:33;3.83;;;1.13;;
30515;SDS011;17297;54.022;10.760;2023-03-04T01:02:59;2.40;;;0.85;;
30515;SDS011;17297;54.022;10.760;2023-03-04T01:05:24;3.20;;;1.13;;
30515;SDS011;17297;54.022;10.760;2023-03-04T01:07:50;6.70;;;1.15;;
30515;SDS011;17297;54.022;10.760;2023-03-04T01:10:15;4.75;;;1.10;;
30515;SDS011;17297;54.022;10.760;2023-03-04T01:12:41;4.68;;;1.40;;
30515;SDS011;17297;54.022;10.760;2023-03-04T01:15:08;2.33;;;1.50;;
30515;SDS011;17297;54.022;10.760;2023-03-04T01:17:34;4.32;;;1.73;;
30515;SDS011;17297;54.022;10.760;2023-03-04T01:20:00;3.05;;;1.00;;
30515;SDS011;17297;54.022;10.760;2023-03-04T01:22:26;4.93;;;1.20;;
30515;SDS011;17297;54.022;10.760;2023-03-04T01:24:51;3.75;;;1.10;;
30515;SDS011;17297;54.022;10.760;2023-03-04T01:27:17;3.83;;;1.30;;
30515;SDS011;17297;54.022;10.760;2023-03-04T01:29:42;3.20;;;1.15;;
30515;SDS011;17297;54.022;10.760;2023-03-04T01:32:08;2.58;;;1.30;;
30515;SDS011;17297;54.022;10.760;2023-03-04T01:34:34;4.55;;;1.00;;
30515;SDS011;17297;54.022;10.760;2023-03-04T01:37:02;3.63;;;1.10;;
30515;SDS011;17297;54.022;10.760;2023-03-04T01:39:28;2.53;;;0.88;;
30515;SDS011;17297;54.022;10.760;2023-03-04T01:41:54;4.03;;;1.17;;
30515;SDS011;17297;54.022;10.760;2023-03-04T01:44:19;2.63;;;1.23;;
30515;SDS011;17297;54.022;10.760;2023-03-04T01:46:46;2.00;;;1.10;;
30515;SDS011;17297;54.022;10.760;2023-03-04T01:49:15;3.13;;;1.30;;
30515;SDS011;17297;54.022;10.760;2023-03-04T01:51:42;2.42;;;1.08;;
30515;SDS011;17297;54.022;10.760;2023-03-04T01:54:10;2.67;;;1.20;;
30515;SDS011;17297;54.022;10.760;2023-03-04T01:56:37;5.13;;;1.90;;
30515;SDS011;17297;54.022;10.760;2023-03-04T01:59:07;3.53;;;0.98;;
30515;SDS011;17297;54.022;10.760;2023-03-04T02:01:48;2.50;;;1.10;;
30515;SDS011;17297;54.022;10.760;2023-03-04T02:04:16;2.75;;;1.10;;
30515;SDS011;17297;54.022;10.760;2023-03-04T02:06:43;4.45;;;1.05;;
30515;SDS011;17297;54.022;10.760;2023-03-04T02:09:09;4.10;;;1.17;;
30515;SDS011;17297;54.022;10.760;2023-03-04T02:11:35;3.17;;;0.82;;
30515;SDS011;17297;54.022;10.760;2023-03-04T02:14:01;4.28;;;1.10;;
30515;SDS011;17297;54.022;10.760;2023-03-04T02:16:27;5.10;;;1.40;;
30515;SDS011;17297;54.022;10.760;2023-03-04T02:18:53;3.65;;;1.13;;
30515;SDS011;17297;54.022;10.760;2023-03-04T02:23:58;6.22;;;1.40;;
30515;SDS011;17297;54.022;10.760;2023-03-04T02:26:35;4.72;;;1.30;;
30515;SDS011;17297;54.022;10.760;2023-03-04T02:29:01;4.75;;;1.17;;
30515;SDS011;17297;54.022;10.760;2023-03-04T02:31:35;2.25;;;1.25;;
30515;SDS011;17297;54.022;10.760;2023-03-04T02:34:04;8.85;;;1.75;;
30515;SDS011;17297;54.022;10.760;2023-03-04T02:36:33;3.90;;;1.10;;
30515;SDS011;17297;54.022;10.760;2023-03-04T02:39:00;3.90;;;1.20;;
30515;SDS011;17297;54.022;10.760;2023-03-04T02:41:29;5.70;;;1.77;;
30515;SDS011;17297;54.022;10.760;2023-03-04T02:43:56;2.75;;;1.15;;
30515;SDS011;17297;54.022;10.760;2023-03-04T02:46:22;3.75;;;2.05;;
30515;SDS011;17297;54.022;10.760;2023-03-04T02:48:48;4.85;;;1.85;;
30515;SDS011;17297;54.022;10.760;2023-03-04T02:51:14;3.17;;;1.35;;
30515;SDS011;17297;54.022;10.760;2023-03-04T02:53:40;3.50;;;1.05;;
30515;SDS011;17297;54.022;10.760;2023-03-04T02:56:06;5.65;;;1.55;;
30515;SDS011;17297;54.022;10.760;2023-03-04T02:58:34;4.85;;;1.10;;
30515;SDS011;17297;54.022;10.760;2023-03-04T03:01:03;2.35;;;1.00;;
30515;SDS011;17297;54.022;10.760;2023-03-04T03:03:30;2.53;;;1.20;;
30515;SDS011;17297;54.022;10.760;2023-03-04T03:05:55;6.20;;;1.95;;
30515;SDS011;17297;54.022;10.760;2023-03-04T03:08:21;5.10;;;1.20;;
30515;SDS011;17297;54.022;10.760;2023-03-04T03:10:47;5.50;;;2.85;;
30515;SDS011;17297;54.022;10.760;2023-03-04T03:13:12;4.13;;;1.30;;
30515;SDS011;17297;54.022;10.760;2023-03-04T03:15:38;2.72;;;1.13;;
30515;SDS011;17297;54.022;10.760;2023-03-04T03:18:10;3.15;;;0.98;;
30515;SDS011;17297;54.022;10.760;2023-03-04T03:20:36;3.83;;;1.73;;
30515;SDS011;17297;54.022;10.760;2023-03-04T03:23:02;3.08;;;0.88;;
30515;SDS011;17297;54.022;10.760;2023-03-04T03:25:28;2.65;;;1.00;;
30515;SDS011;17297;54.022;10.760;2023-03-04T03:27:54;8.98;;;1.70;;
30515;SDS011;17297;54.022;10.760;2023-03-04T03:30:19;1.85;;;0.80;;
30515;SDS011;17297;54.022;10.760;2023-03-04T03:32:45;2.17;;;0.73;;
30515;SDS011;17297;54.022;10.760;2023-03-04T03:35:10;5.07;;;1.40;;
30515;SDS011;17297;54.022;10.760;2023-03-04T03:37:36;1.35;;;0.90;;
30515;SDS011;17297;54.022;10.760;2023-03-04T03:40:02;5.40;;;1.42;;
30515;SDS011;17297;54.022;10.760;2023-03-04T03:42:28;1.33;;;0.80;;
30515;SDS011;17297;54.022;10.760;2023-03-04T03:44:54;2.25;;;0.90;;
30515;SDS011;17297;54.022;10.760;2023-03-04T03:47:20;4.72;;;1.23;;
30515;SDS011;17297;54.022;10.760;2023-03-04T03:49:46;5.07;;;1.17;;
30515;SDS011;17297;54.022;10.760;2023-03-04T03:52:11;2.95;;;1.17;;
30515;SDS011;17297;54.022;10.760;2023-03-04T03:54:37;2.05;;;0.98;;
30515;SDS011;17297;54.022;10.760;2023-03-04T03:57:02;1.90;;;0.75;;
30515;SDS011;17297;54.022;10.760;2023-03-04T03:59:28;3.10;;;1.50;;
30515;SDS011;17297;54.022;10.760;2023-03-04T04:01:53;2.60;;;1.20;;
30515;SDS011;17297;54.022;10.760;2023-03-04T04:04:19;3.92;;;2.15;;
30515;SDS011;17297;54.022;10.760;2023-03-04T04:06:44;3.80;;;1.70;;
30515;SDS011;17297;54.022;10.760;2023-03-04T04:09:10;4.18;;;1.10;;
30515;SDS011;17297;54.022;10.760;2023-03-04T04:11:35;5.43;;;1.85;;
30515;SDS011;17297;54.022;10.760;2023-03-04T04:14:01;2.53;;;1.33;;
30515;SDS011;17297;54.022;10.760;2023-03-04T04:16:26;3.33;;;1.00;;
30515;SDS011;17297;54.022;10.760;2023-03-04T04:18:52;11.63;;;2.17;;
30515;SDS011;17297;54.022;10.760;2023-03-04T04:21:17;3.28;;;1.30;;
30515;SDS011;17297;54.022;10.760;2023-03-04T04:23:43;6.45;;;1.60;;
30515;SDS011;17297;54.022;10.760;2023-03-04T04:26:08;2.67;;;1.25;;
30515;SDS011;17297;54.022;10.760;2023-03-04T04:28:34;2.33;;;1.10;;
30515;SDS011;17297;54.022;10.760;2023-03-04T04:30:59;3.55;;;1.10;;
30515;SDS011;17297;54.022;10.760;2023-03-04T04:33:25;8.52;;;1.63;;
30515;SDS011;17297;54.022;10.760;2023-03-04T04:35:50;4.53;;;1.35;;
30515;SDS011;17297;54.022;10.760;2023-03-04T04:38:16;1.27;;;1.10;;
30515;SDS011;17297;54.022;10.760;2023-03-04T04:40:41;3.67;;;1.33;;
30515;SDS011;17297;54.022;10.760;2023-03-04T04:43:07;3.45;;;1.10;;
30515;SDS011;17297;54.022;10.760;2023-03-04T04:45:33;3.17;;;1.40;;
30515;SDS011;17297;54.022;10.760;2023-03-04T04:47:59;6.22;;;2.22;;
30515;SDS011;17297;54.022;10.760;2023-03-04T04:50:25;5.70;;;2.25;;
30515;SDS011;17297;54.022;10.760;2023-03-04T04:52:51;4.18;;;1.30;;
30515;SDS011;17297;54.022;10.760;2023-03-04T04:55:16;3.40;;;1.42;;
30515;SDS011;17297;54.022;10.760;2023-03-04T04:57:42;4.72;;;1.42;;
30515;SDS011;17297;54.022;10.760;2023-03-04T05:00:07;5.25;;;1.20;;
30515;SDS011;17297;54.022;10.760;2023-03-04T05:02:34;6.78;;;2.13;;
30515;SDS011;17297;54.022;10.760;2023-03-04T05:05:04;3.65;;;1.40;;
30515;SDS011;17297;54.022;10.760;2023-03-04T05:07:31;3.55;;;1.42;;
30515;SDS011;17297;54.022;10.760;2023-03-04T05:09:56;5.35;;;2.30;;
30515;SDS011;17297;54.022;10.760;2023-03-04T05:12:22;9.05;;;1.83;;
30515;SDS011;17297;54.022;10.760;2023-03-04T05:14:47;4.65;;;1.80;;
30515;SDS011;17297;54.022;10.760;2023-03-04T05:17:13;5.30;;;1.92;;
30515;SDS011;17297;54.022;10.760;2023-03-04T05:19:38;4.63;;;1.77;;
30515;SDS011;17297;54.022;10.760;2023-03-04T05:22:04;7.13;;;2.10;;
30515;SDS011;17297;54.022;10.760;2023-03-04T05:24:29;6.05;;;1.90;;
30515;SDS011;17297;54.022;10.760;2023-03-04T05:26:55;5.47;;;1.80;;
30515;SDS011;17297;54.022;10.760;2023-03-04T05:29:20;4.93;;;2.00;;
30515;SDS011;17297;54.022;10.760;2023-03-04T05:31:46;7.03;;;1.88;;
30515;SDS011;17297;54.022;10.760;2023-03-04T05:34:11;9.13;;;2.53;;
30515;SDS011;17297;54.022;10.760;2023-03-04T05:36:37;8.75;;;2.22;;
30515;SDS011;17297;54.022;10.760;2023-03-04T05:39:02;4.32;;;2.05;;
30515;SDS011;17297;54.022;10.760;2023-03-04T05:41:28;8.40;;;2.10;;
30515;SDS011;17297;54.022;10.760;2023-03-04T05:43:54;5.47;;;2.15;;
30515;SDS011;17297;54.022;10.760;2023-03-04T05:46:20;6.43;;;2.00;;
30515;SDS011;17297;54.022;10.760;2023-03-04T05:48:50;7.88;;;2.35;;
30515;SDS011;17297;54.022;10.760;2023-03-04T05:51:17;8.38;;;1.80;;
30515;SDS011;17297;54.022;10.760;2023-03-04T05:53:46;7.15;;;2.15;;
30515;SDS011;17297;54.022;10.760;2023-03-04T05:56:16;11.45;;;2.85;;
30515;SDS011;17297;54.022;10.760;2023-03-04T05:58:43;6.05;;;2.50;;
30515;SDS011;17297;54.022;10.760;2023-03-04T06:01:11;4.85;;;2.28;;
30515;SDS011;17297;54.022;10.760;2023-03-04T06:03:37;9.10;;;2.17;;
30515;SDS011;17297;54.022;10.760;2023-03-04T06:06:03;8.88;;;2.85;;
30515;SDS011;17297;54.022;10.760;2023-03-04T06:08:29;10.57;;;2.65;;
30515;SDS011;17297;54.022;10.760;2023-03-04T06:10:55;7.80;;;2.55;;
30515;SDS011;17297;54.022;10.760;2023-03-04T06:13:21;6.80;;;2.58;;
30515;SDS011;17297;54.022;10.760;2023-03-04T06:15:47;10.77;;;2.75;;
30515;SDS011;17297;54.022;10.760;2023-03-04T06:18:18;5.88;;;2.10;;
30515;SDS011;17297;54.022;10.760;2023-03-04T06:20:44;7.53;;;2.15;;
30515;SDS011;17297;54.022;10.760;2023-03-04T06:23:09;11.07;;;3.75;;
30515;SDS011;17297;54.022;10.760;2023-03-04T06:25:35;9.23;;;2.38;;
30515;SDS011;17297;54.022;10.760;2023-03-04T06:28:00;7.78;;;2.25;;
30515;SDS011;17297;54.022;10.760;2023-03-04T06:30:26;8.45;;;2.40;;
30515;SDS011;17297;54.022;10.760;2023-03-04T06:32:52;9.32;;;2.10;;
30515;SDS011;17297;54.022;10.760;2023-03-04T06:35:17;7.07;;;2.45;;
30515;SDS011;17297;54.022;10.760;2023-03-04T06:37:43;5.03;;;1.67;;
30515;SDS011;17297;54.022;10.760;2023-03-04T06:40:09;4.53;;;1.60;;
30515;SDS011;17297;54.022;10.760;2023-03-04T06:42:35;8.07;;;2.10;;
30515;SDS011;17297;54.022;10.760;2023-03-04T06:45:02;6.85;;;1.60;;
30515;SDS011;17297;54.022;10.760;2023-03-04T06:47:28;8.48;;;2.95;;
30515;SDS011;17297;54.022;10.760;2023-03-04T06:49:53;6.65;;;1.98;;
30515;SDS011;17297;54.022;10.760;2023-03-04T06:52:19;10.13;;;2.00;;
30515;SDS011;17297;54.022;10.760;2023-03-04T06:54:44;4.93;;;1.85;;
30515;SDS011;17297;54.022;10.760;2023-03-04T06:57:10;6.03;;;1.27;;
30515;SDS011;17297;54.022;10.760;2023-03-04T06:59:38;5.32;;;1.77;;
30515;SDS011;17297;54.022;10.760;2023-03-04T07:02:03;6.90;;;1.40;;
30515;SDS011;17297;54.022;10.760;2023-03-04T07:04:29;5.13;;;2.10;;
30515;SDS011;17297;54.022;10.760;2023-03-04T07:06:55;6.05;;;2.75;;
30515;SDS011;17297;54.022;10.760;2023-03-04T07:09:20;5.25;;;1.60;;
30515;SDS011;17297;54.022;10.760;2023-03-04T07:11:46;4.22;;;1.60;;
30515;SDS011;17297;54.022;10.760;2023-03-04T07:14:12;3.25;;;1.40;;
30515;SDS011;17297;54.022;10.760;2023-03-04T07:16:38;6.28;;;1.90;;
30515;SDS011;17297;54.022;10.760;2023-03-04T07:19:03;4.20;;;1.75;;
30515;SDS011;17297;54.022;10.760;2023-03-04T07:21:29;3.70;;;1.85;;
30515;SDS011;17297;54.022;10.760;2023-03-04T07:23:54;6.43;;;1.67;;
30515;SDS011;17297;54.022;10.760;2023-03-04T07:26:20;5.70;;;1.83;;
30515;SDS011;17297;54.022;10.760;2023-03-04T07:28:45;7.07;;;2.58;;
30515;SDS011;17297;54.022;10.760;2023-03-04T07:31:13;9.68;;;2.47;;
30515;SDS011;17297;54.022;10.760;2023-03-04T07:34:01;4.53;;;2.20;;
30515;SDS011;17297;54.022;10.760;2023-03-04T07:36:28;9.70;;;2.10;;
30515;SDS011;17297;54.022;10.760;2023-03-04T07:38:54;6.60;;;1.83;;
30515;SDS011;17297;54.022;10.760;2023-03-04T07:41:21;13.20;;;3.17;;
30515;SDS011;17297;54.022;10.760;2023-03-04T07:43:48;9.68;;;2.38;;
30515;SDS011;17297;54.022;10.760;2023-03-04T07:46:14;5.85;;;2.10;;
30515;SDS011;17297;54.022;10.760;2023-03-04T07:48:41;8.90;;;2.20;;
30515;SDS011;17297;54.022;10.760;2023-03-04T07:53:36;9.98;;;2.63;;
30515;SDS011;17297;54.022;10.760;2023-03-04T07:56:04;6.28;;;2.08;;
30515;SDS011;17297;54.022;10.760;2023-03-04T07:58:30;8.65;;;2.05;;
30515;SDS011;17297;54.022;10.760;2023-03-04T08:00:56;7.55;;;2.20;;
30515;SDS011;17297;54.022;10.760;2023-03-04T08:03:22;7.88;;;2.20;;
30515;SDS011;17297;54.022;10.760;2023-03-04T08:05:48;6.88;;;2.33;;
30515;SDS011;17297;54.022;10.760;2023-03-04T08:08:14;7.85;;;2.22;;
30515;SDS011;17297;54.022;10.760;2023-03-04T08:10:40;7.20;;;2.30;;
30515;SDS011;17297;54.022;10.760;2023-03-04T08:13:09;8.18;;;3.08;;
30515;SDS011;17297;54.022;10.760;2023-03-04T08:15:54;8.57;;;2.20;;
30515;SDS011;17297;54.022;10.760;2023-03-04T08:18:20;6.32;;;2.22;;
30515;SDS011;17297;54.022;10.760;2023-03-04T08:20:46;8.88;;;2.45;;
30515;SDS011;17297;54.022;10.760;2023-03-04T08:23:11;10.73;;;2.10;;
30515;SDS011;17297;54.022;10.760;2023-03-04T08:25:38;11.90;;;2.95;;
30515;SDS011;17297;54.022;10.760;2023-03-04T08:28:05;8.32;;;2.60;;
30515;SDS011;17297;54.022;10.760;2023-03-04T08:30:31;10.13;;;2.42;;
30515;SDS011;17297;54.022;10.760;2023-03-04T08:32:56;11.73;;;2.85;;
30515;SDS011;17297;54.022;10.760;2023-03-04T08:35:22;10.60;;;2.72;;
30515;SDS011;17297;54.022;10.760;2023-03-04T08:37:47;9.30;;;2.63;;
30515;SDS011;17297;54.022;10.760;2023-03-04T08:40:13;11.45;;;2.20;;
30515;SDS011;17297;54.022;10.760;2023-03-04T08:42:40;8.30;;;3.13;;
30515;SDS011;17297;54.022;10.760;2023-03-04T08:45:06;13.25;;;3.58;;
30515;SDS011;17297;54.022;10.760;2023-03-04T08:47:33;5.20;;;2.00;;
30515;SDS011;17297;54.022;10.760;2023-03-04T08:49:59;8.70;;;2.30;;
30515;SDS011;17297;54.022;10.760;2023-03-04T08:52:24;14.57;;;2.88;;
30515;SDS011;17297;54.022;10.760;2023-03-04T08:54:50;7.03;;;2.42;;
30515;SDS011;17297;54.022;10.760;2023-03-04T08:57:15;8.68;;;2.78;;
30515;SDS011;17297;54.022;10.760;2023-03-04T08:59:41;8.90;;;2.63;;
30515;SDS011;17297;54.022;10.760;2023-03-04T09:02:06;8.23;;;2.63;;
30515;SDS011;17297;54.022;10.760;2023-03-04T09:04:32;8.82;;;2.28;;
30515;SDS011;17297;54.022;10.760;2023-03-04T09:06:57;10.23;;;2.50;;
30515;SDS011;17297;54.022;10.760;2023-03-04T09:09:23;11.57;;;3.13;;
30515;SDS011;17297;54.022;10.760;2023-03-04T09:11:48;7.07;;;2.53;;
30515;SDS011;17297;54.022;10.760;2023-03-04T09:14:14;10.60;;;2.25;;
30515;SDS011;17297;54.022;10.760;2023-03-04T09:16:39;13.57;;;3.35;;
30515;SDS011;17297;54.022;10.760;2023-03-04T09:19:05;8.07;;;2.42;;
30515;SDS011;17297;54.022;10.760;2023-03-04T09:21:31;7.45;;;2.72;;
30515;SDS011;17297;54.022;10.760;2023-03-04T09:23:57;10.05;;;2.42;;
30515;SDS011;17297;54.022;10.760;2023-03-04T09:26:23;3.83;;;1.75;;
30515;SDS011;17297;54.022;10.760;2023-03-04T09:28:52;7.88;;;1.98;;
30515;SDS011;17297;54.022;10.760;2023-03-04T09:31:22;8.52;;;2.95;;
30515;SDS011;17297;54.022;10.760;2023-03-04T09:33:49;6.47;;;2.40;;
30515;SDS011;17297;54.022;10.760;2023-03-04T09:36:16;7.63;;;2.13;;
30515;SDS011;17297;54.022;10.760;2023-03-04T09:38:42;8.13;;;2.83;;
30515;SDS011;17297;54.022;10.760;2023-03-04T09:41:09;7.95;;;2.30;;
30515;SDS011;17297;54.022;10.760;2023-03-04T09:43:40;9.68;;;3.38;;
30515;SDS011;17297;54.022;10.760;2023-03-04T09:46:09;7.88;;;2.42;;
30515;SDS011;17297;54.022;10.760;2023-03-04T09:48:50;7.97;;;2.10;;
30515;SDS011;17297;54.022;10.760;2023-03-04T09:56:35;9.40;;;2.70;;
30515;SDS011;17297;54.022;10.760;2023-03-04T09:59:16;4.47;;;1.95;;
30515;SDS011;17297;54.022;10.760;2023-03-04T10:01:52;7.30;;;2.25;;
30515;SDS011;17297;54.022;10.760;2023-03-04T10:06:59;9.80;;;3.80;;
30515;SDS011;17297;54.022;10.760;2023-03-04T10:09:27;7.15;;;3.10;;
30515;SDS011;17297;54.022;10.760;2023-03-04T10:12:08;6.70;;;2.65;;
30515;SDS011;17297;54.022;10.760;2023-03-04T10:14:39;5.78;;;1.90;;
30515;SDS011;17297;54.022;10.760;2023-03-04T10:19:58;8.98;;;2.60;;
30515;SDS011;17297;54.022;10.760;2023-03-04T10:22:48;5.47;;;2.10;;
30515;SDS011;17297;54.022;10.760;2023-03-04T10:25:30;9.13;;;2.37;;
30515;SDS011;17297;54.022;10.760;2023-03-04T10:28:04;5.60;;;1.77;;
30515;SDS011;17297;54.022;10.760;2023-03-04T10:33:26;7.30;;;1.77;;
30515;SDS011;17297;54.022;10.760;2023-03-04T10:38:31;5.53;;;1.52;;
30515;SDS011;17297;54.022;10.760;2023-03-04T10:40:59;4.03;;;1.92;;
30515;SDS011;17297;54.022;10.760;2023-03-04T10:43:25;4.32;;;1.60;;
30515;SDS011;17297;54.022;10.760;2023-03-04T10:45:56;13.20;;;3.40;;
30515;SDS011;17297;54.022;10.760;2023-03-04T10:48:28;7.32;;;2.45;;
30515;SDS011;17297;54.022;10.760;2023-03-04T10:53:44;7.10;;;2.03;;
30515;SDS011;17297;54.022;10.760;2023-03-04T11:02:00;6.07;;;2.72;;
30515;SDS011;17297;54.022;10.760;2023-03-04T11:04:38;4.78;;;1.80;;
30515;SDS011;17297;54.022;10.760;2023-03-04T11:07:08;11.07;;;2.92;;
30515;SDS011;17297;54.022;10.760;2023-03-04T11:09:35;7.53;;;1.90;;
30515;SDS011;17297;54.022;10.760;2023-03-04T11:12:01;9.02;;;2.40;;
30515;SDS011;17297;54.022;10.760;2023-03-04T11:14:45;7.65;;;2.10;;
30515;SDS011;17297;54.022;10.760;2023-03-04T11:17:17;8.23;;;2.38;;
30515;SDS011;17297;54.022;10.760;2023-03-04T11:19:49;6.93;;;1.83;;
30515;SDS011;17297;54.022;10.760;2023-03-04T11:22:19;8.57;;;2.50;;
30515;SDS011;17297;54.022;10.760;2023-03-04T11:24:50;5.88;;;1.65;;
30515;SDS011;17297;54.022;10.760;2023-03-04T11:27:23;6.55;;;2.72;;
30515;SDS011;17297;54.022;10.760;2023-03-04T11:30:24;8.55;;;2.83;;
30515;SDS011;17297;54.022;10.760;2023-03-04T11:32:55;7.10;;;1.98;;
30515;SDS011;17297;54.022;10.760;2023-03-04T11:35:37;9.98;;;2.10;;
30515;SDS011;17297;54.022;10.760;2023-03-04T11:38:15;8.60;;;2.00;;
30515;SDS011;17297;54.022;10.760;2023-03-04T11:40:51;7.47;;;2.28;;
30515;SDS011;17297;54.022;10.760;2023-03-04T11:43:29;7.30;;;2.50;;
30515;SDS011;17297;54.022;10.760;2023-03-04T11:48:52;7.38;;;2.10;;
30515;SDS011;17297;54.022;10.760;2023-03-04T11:54:14;9.03;;;2.47;;
30515;SDS011;17297;54.022;10.760;2023-03-04T11:56:48;7.93;;;2.13;;
30515;SDS011;17297;54.022;10.760;2023-03-04T12:10:51;8.80;;;2.28;;
30515;SDS011;17297;54.022;10.760;2023-03-04T12:14:00;5.95;;;2.85;;
30515;SDS011;17297;54.022;10.760;2023-03-04T12:22:07;7.03;;;2.58;;
30515;SDS011;17297;54.022;10.760;2023-03-04T12:38:54;6.07;;;2.40;;
30515;SDS011;17297;54.022;10.760;2023-03-04T12:45:12;9.05;;;2.17;;
30515;SDS011;17297;54.022;10.760;2023-03-04T12:47:59;6.28;;;1.42;;
30515;SDS011;17297;54.022;10.760;2023-03-04T12:50:30;3.13;;;1.50;;
30515;SDS011;17297;54.022;10.760;2023-03-04T12:55:42;6.25;;;2.33;;
30515;SDS011;17297;54.022;10.760;2023-03-04T12:58:20;4.72;;;1.75;;
30515;SDS011;17297;54.022;10.760;2023-03-04T13:00:51;3.92;;;1.45;;
30515;SDS011;17297;54.022;10.760;2023-03-04T13:06:23;4.25;;;1.48;;
30515;SDS011;17297;54.022;10.760;2023-03-04T13:11:43;3.03;;;1.90;;
30515;SDS011;17297;54.022;10.760;2023-03-04T13:32:55;4.72;;;2.38;;
30515;SDS011;17297;54.022;10.760;2023-03-04T13:38:25;7.13;;;2.25;;
30515;SDS011;17297;54.022;10.760;2023-03-04T13:48:45;5.05;;;1.50;;
30515;SDS011;17297;54.022;10.760;2023-03-04T13:54:28;4.15;;;1.50;;
30515;SDS011;17297;54.022;10.760;2023-03-04T13:56:43;2.92;;;1.30;;
30515;SDS011;17297;54.022;10.760;2023-03-04T13:59:20;4.80;;;1.80;;
30515;SDS011;17297;54.022;10.760;2023-03-04T14:06:43;3.53;;;1.30;;
30515;SDS011;17297;54.022;10.760;2023-03-04T14:09:15;6.03;;;1.73;;
30515;SDS011;17297;54.022;10.760;2023-03-04T14:11:47;4.80;;;1.30;;
30515;SDS011;17297;54.022;10.760;2023-03-04T14:14:19;5.32;;;1.65;;
30515;SDS011;17297;54.022;10.760;2023-03-04T14:16:48;2.28;;;1.10;;
30515;SDS011;17297;54.022;10.760;2023-03-04T14:19:29;3.67;;;1.52;;
30515;SDS011;17297;54.022;10.760;2023-03-04T14:21:58;2.83;;;1.20;;
30515;SDS011;17297;54.022;10.760;2023-03-04T14:24:24;6.05;;;1.35;;
30515;SDS011;17297;54.022;10.760;2023-03-04T14:27:02;6.72;;;1.60;;
30515;SDS011;17297;54.022;10.760;2023-03-04T14:29:35;4.03;;;2.20;;
30515;SDS011;17297;54.022;10.760;2023-03-04T14:32:01;3.67;;;1.55;;
30515;SDS011;17297;54.022;10.760;2023-03-04T14:34:30;5.35;;;1.60;;
30515;SDS011;17297;54.022;10.760;2023-03-04T14:37:02;4.38;;;1.40;;
30515;SDS011;17297;54.022;10.760;2023-03-04T14:39:41;3.92;;;1.48;;
30515;SDS011;17297;54.022;10.760;2023-03-04T14:42:08;4.15;;;1.20;;
30515;SDS011;17297;54.022;10.760;2023-03-04T14:44:45;8.75;;;1.60;;
30515;SDS011;17297;54.022;10.760;2023-03-04T14:49:51;3.58;;;1.58;;
30515;SDS011;17297;54.022;10.760;2023-03-04T14:55:16;3.33;;;1.25;;
30515;SDS011;17297;54.022;10.760;2023-03-04T14:57:47;3.08;;;1.30;;
30515;SDS011;17297;54.022;10.760;2023-03-04T15:02:46;2.80;;;1.20;;
30515;SDS011;17297;54.022;10.760;2023-03-04T15:05:18;4.15;;;1.33;;
30515;SDS011;17297;54.022;10.760;2023-03-04T15:07:58;3.58;;;1.20;;
30515;SDS011;17297;54.022;10.760;2023-03-04T15:10:26;5.72;;;1.50;;
30515;SDS011;17297;54.022;10.760;2023-03-04T15:12:56;3.10;;;1.30;;
30515;SDS011;17297;54.022;10.760;2023-03-04T15:15:33;3.30;;;1.50;;
30515;SDS011;17297;54.022;10.760;2023-03-04T15:18:01;2.28;;;1.20;;
30515;SDS011;17297;54.022;10.760;2023-03-04T15:20:29;4.05;;;1.25;;
30515;SDS011;17297;54.022;10.760;2023-03-04T15:22:57;1.90;;;1.20;;
30515;SDS011;17297;54.022;10.760;2023-03-04T15:25:25;2.70;;;1.10;;
30515;SDS011;17297;54.022;10.760;2023-03-04T15:27:51;8.07;;;2.28;;
30515;SDS011;17297;54.022;10.760;2023-03-04T15:30:25;4.00;;;1.45;;
30515;SDS011;17297;54.022;10.760;2023-03-04T15:32:54;3.00;;;1.50;;
30515;SDS011;17297;54.022;10.760;2023-03-04T15:35:20;3.95;;;1.80;;
30515;SDS011;17297;54.022;10.760;2023-03-04T15:37:47;3.55;;;1.50;;
30515;SDS011;17297;54.022;10.760;2023-03-04T15:40:35;5.30;;;1.35;;
30515;SDS011;17297;54.022;10.760;2023-03-04T15:43:03;4.93;;;1.70;;
30515;SDS011;17297;54.022;10.760;2023-03-04T15:48:01;9.23;;;2.28;;
30515;SDS011;17297;54.022;10.760;2023-03-04T15:50:34;6.22;;;2.10;;
30515;SDS011;17297;54.022;10.760;2023-03-04T15:53:02;4.60;;;1.42;;
30515;SDS011;17297;54.022;10.760;2023-03-04T15:55:30;4.30;;;1.70;;
30515;SDS011;17297;54.022;10.760;2023-03-04T15:57:57;5.32;;;1.63;;
30515;SDS011;17297;54.022;10.760;2023-03-04T16:00:24;6.40;;;1.60;;
30515;SDS011;17297;54.022;10.760;2023-03-04T16:02:50;3.60;;;1.15;;
30515;SDS011;17297;54.022;10.760;2023-03-04T16:05:16;2.53;;;1.27;;
30515;SDS011;17297;54.022;10.760;2023-03-04T16:07:44;1.65;;;1.08;;
30515;SDS011;17297;54.022;10.760;2023-03-04T16:10:25;6.53;;;1.42;;
30515;SDS011;17297;54.022;10.760;2023-03-04T16:12:52;2.00;;;0.80;;
30515;SDS011;17297;54.022;10.760;2023-03-04T16:15:19;2.53;;;1.08;;
30515;SDS011;17297;54.022;10.760;2023-03-04T16:17:50;2.38;;;1.27;;
30515;SDS011;17297;54.022;10.760;2023-03-04T16:20:18;3.78;;;2.03;;
30515;SDS011;17297;54.022;10.760;2023-03-04T16:22:46;2.22;;;0.98;;
30515;SDS011;17297;54.022;10.760;2023-03-04T16:25:14;1.60;;;0.80;;
30515;SDS011;17297;54.022;10.760;2023-03-04T16:27:41;3.58;;;1.02;;
30515;SDS011;17297;54.022;10.760;2023-03-04T16:32:45;2.42;;;1.17;;
30515;SDS011;17297;54.022;10.760;2023-03-04T16:35:11;1.42;;;0.82;;
30515;SDS011;17297;54.022;10.760;2023-03-04T16:37:38;0.77;;;0.77;;
30515;SDS011;17297;54.022;10.760;2023-03-04T16:40:04;0.90;;;0.70;;
30515;SDS011;17297;54.022;10.760;2023-03-04T16:42:31;1.00;;;0.80;;
30515;SDS011;17297;54.022;10.760;2023-03-04T16:44:57;1.38;;;0.70;;
30515;SDS011;17297;54.022;10.760;2023-03-04T16:47:22;3.50;;;1.48;;
30515;SDS011;17297;54.022;10.760;2023-03-04T16:49:48;1.90;;;0.70;;